Time;durP1;ratioP1;P1;durP2;ratioP2;P2;SDS_P1;SDS_P2;PMS_P1;PMS_P2;Temp;Humidity;BMP_temperature;BMP_pressure;BME280_temperature;BME280_humidity;BME280_pressure;Samples;Min_cycle;Max_cycle;Signal;HPM_P1;HPM_P2
2022/06/13 00:01:16;;;;;;;0.32;0.32;;;;;;;26.65;45.08;99450.91;5027791;28;20117;-71
2022/06/13 00:03:42;;;;;;;0.50;0.50;;;;;;;26.65;44.98;99450.91;5028700;28;20068;-71
2022/06/13 00:06:08;;;;;;;0.70;0.50;;;;;;;26.67;44.80;99453.28;5031257;28;20386;-72
2022/06/13 00:08:34;;;;;;;1.27;0.60;;;;;;;26.66;44.60;99440.47;5021345;28;20046;-71
2022/06/13 00:11:00;;;;;;;0.82;0.50;;;;;;;26.65;44.91;99436.88;5026418;28;20049;-71
2022/06/13 00:13:25;;;;;;;0.43;0.38;;;;;;;26.66;44.79;99437.69;5030268;28;20075;-71
2022/06/13 00:15:50;;;;;;;0.50;0.40;;;;;;;26.66;44.84;99434.88;5030937;28;20045;-71
2022/06/13 00:18:16;;;;;;;0.93;0.50;;;;;;;26.64;44.72;99432.47;5028615;28;20132;-71
2022/06/13 00:20:41;;;;;;;0.90;0.60;;;;;;;26.63;44.65;99430.88;5030701;28;20042;-71
2022/06/13 00:23:07;;;;;;;0.68;0.50;;;;;;;26.63;44.65;99433.69;5030649;28;20581;-71
2022/06/13 00:25:32;;;;;;;0.40;0.40;;;;;;;26.63;44.60;99432.88;5030995;28;20042;-71
2022/06/13 00:27:58;;;;;;;0.85;0.52;;;;;;;26.63;44.72;99428.06;5025200;28;20095;-71
2022/06/13 00:30:23;;;;;;;0.60;0.50;;;;;;;26.62;45.00;99420.88;5003708;28;20542;-71
2022/06/13 00:32:50;;;;;;;0.50;0.40;;;;;;;26.59;44.89;99418.91;5023161;28;20147;-71
2022/06/13 00:35:16;;;;;;;0.50;0.40;;;;;;;26.62;44.49;99420.88;5030343;28;20052;-72
2022/06/13 00:37:41;;;;;;;0.30;0.30;;;;;;;26.60;44.86;99418.47;5028935;28;20041;-71
2022/06/13 00:40:07;;;;;;;0.68;0.50;;;;;;;26.61;44.66;99417.25;5029148;28;20037;-71
2022/06/13 00:42:33;;;;;;;1.13;0.60;;;;;;;26.60;44.40;99415.66;5020597;28;20073;-72
2022/06/13 00:45:08;;;;;;;0.65;0.50;;;;;;;26.60;44.78;99420.50;5028973;28;20052;-72
2022/06/13 00:47:34;;;;;;;0.55;0.47;;;;;;;26.60;44.84;99409.25;5029872;28;20124;-73
2022/06/13 00:50:03;;;;;;;0.95;0.60;;;;;;;26.61;44.57;99410.84;5029993;28;20164;-72
2022/06/13 00:52:45;;;;;;;0.52;0.40;;;;;;;26.59;44.97;99408.47;5029310;28;20042;-72
2022/06/13 00:55:21;;;;;;;1.33;0.60;;;;;;;26.60;44.64;99403.66;5030027;28;20065;-72
2022/06/13 00:57:46;;;;;;;0.90;0.50;;;;;;;26.59;44.86;99402.06;5029276;28;20045;-72
2022/06/13 01:00:15;;;;;;;0.52;0.43;;;;;;;26.59;44.87;99402.84;5036569;28;20045;-72
2022/06/13 01:02:45;;;;;;;0.70;0.50;;;;;;;26.60;44.61;99409.25;5029006;28;20041;-72
2022/06/13 01:05:13;;;;;;;0.68;0.55;;;;;;;26.57;44.82;99404.47;5029860;28;20041;-72
2022/06/13 01:07:38;;;;;;;0.52;0.50;;;;;;;26.56;44.97;99409.28;5028857;28;20037;-72
2022/06/13 01:12:50;;;;;;;0.90;0.50;;;;;;;26.56;44.82;99391.66;5029259;28;20120;-72
2022/06/13 01:15:30;;;;;;;0.40;0.40;;;;;;;26.55;45.23;99385.25;5027354;28;20053;-72
2022/06/13 01:18:02;;;;;;;0.50;0.50;;;;;;;26.56;44.84;99386.03;5027882;28;20044;-72
2022/06/13 01:20:49;;;;;;;0.50;0.40;;;;;;;26.54;45.14;99392.06;5028735;28;20137;-72
2022/06/13 01:23:17;;;;;;;0.85;0.63;;;;;;;26.56;44.84;99391.66;5028224;28;20437;-72
2022/06/13 01:26:09;;;;;;;0.80;0.50;;;;;;;26.54;44.82;99394.09;5028806;28;20041;-72
2022/06/13 01:29:00;;;;;;;0.80;0.60;;;;;;;26.55;44.88;99395.69;4980499;28;20103;-72
2022/06/13 01:31:46;;;;;;;0.55;0.50;;;;;;;26.53;44.61;99384.09;4982148;28;20046;-72
2022/06/13 01:34:21;;;;;;;0.70;0.55;;;;;;;26.52;44.66;99388.91;4978611;28;20053;-72
2022/06/13 01:37:00;;;;;;;0.47;0.40;;;;;;;26.51;44.99;99390.13;4985405;28;20581;-72
2022/06/13 01:39:34;;;;;;;0.55;0.50;;;;;;;26.52;44.76;99390.91;4985751;28;20174;-72
2022/06/13 01:42:25;;;;;;;0.77;0.50;;;;;;;26.52;44.86;99396.53;4987698;28;20046;-72
2022/06/13 01:45:11;;;;;;;0.70;0.50;;;;;;;26.52;45.04;99402.13;4972224;28;20133;-72
2022/06/13 01:47:42;;;;;;;0.40;0.40;;;;;;;26.52;44.93;99402.91;4985565;28;20097;-72
2022/06/13 01:50:10;;;;;;;0.70;0.45;;;;;;;26.51;44.62;99411.75;4986824;28;20572;-72
2022/06/13 01:52:52;;;;;;;0.40;0.40;;;;;;;26.49;44.83;99409.34;4977042;28;20169;-72
2022/06/13 01:55:27;;;;;;;0.50;0.43;;;;;;;26.50;44.90;99408.13;4985584;28;20085;-72
2022/06/13 01:58:15;;;;;;;1.20;0.50;;;;;;;26.51;45.11;99403.34;4987817;28;20486;-72
2022/06/13 02:00:48;;;;;;;0.52;0.40;;;;;;;26.52;45.12;99404.94;4987569;28;20038;-72
2022/06/13 02:03:26;;;;;;;0.40;0.40;;;;;;;26.50;44.79;99401.72;4983549;28;20047;-72
2022/06/13 02:06:15;;;;;;;1.00;0.60;;;;;;;26.52;45.14;99411.34;5005968;28;20049;-72
2022/06/13 02:08:50;;;;;;;0.80;0.40;;;;;;;26.50;45.20;99415.75;5020466;28;20037;-72
2022/06/13 02:11:31;;;;;;;0.63;0.50;;;;;;;26.51;45.00;99417.38;5029176;28;20041;-72
2022/06/13 02:14:13;;;;;;;0.60;0.50;;;;;;;26.48;45.10;99406.97;5001582;28;20114;-72
2022/06/13 02:16:46;;;;;;;0.47;0.45;;;;;;;26.49;44.86;99406.53;5029033;28;20494;-72
2022/06/13 02:19:22;;;;;;;0.65;0.40;;;;;;;26.46;45.13;99404.56;5028807;28;20045;-72
2022/06/13 02:21:53;;;;;;;0.40;0.40;;;;;;;26.45;45.19;99408.59;5028916;28;20133;-72
2022/06/13 02:24:24;;;;;;;0.68;0.40;;;;;;;26.45;45.04;99405.00;5025965;28;20053;-72
2022/06/13 02:26:55;;;;;;;0.77;0.40;;;;;;;26.46;45.13;99398.97;5028342;28;20540;-71
2022/06/13 02:29:32;;;;;;;0.60;0.50;;;;;;;26.45;45.34;99405.78;5028120;28;20045;-71
2022/06/13 02:32:11;;;;;;;0.68;0.50;;;;;;;26.43;45.39;99398.97;5028437;28;20433;-71
2022/06/13 02:34:42;;;;;;;0.50;0.50;;;;;;;26.46;45.11;99398.16;5028367;28;20571;-71
2022/06/13 02:37:26;;;;;;;0.43;0.43;;;;;;;26.43;45.38;99401.78;5028216;28;20120;-71
2022/06/13 02:40:12;;;;;;;0.88;0.50;;;;;;;26.43;45.55;99391.34;5028082;28;20564;-72
2022/06/13 02:43:02;;;;;;;0.63;0.50;;;;;;;26.43;45.61;99396.97;5028034;28;20072;-72
2022/06/13 02:45:37;;;;;;;0.50;0.50;;;;;;;26.41;45.37;99396.59;5026596;28;20465;-72
2022/06/13 02:48:18;;;;;;;0.45;0.40;;;;;;;26.42;45.28;99405.81;5027440;28;20067;-72
2022/06/13 02:51:14;;;;;;;1.65;0.60;;;;;;;26.43;45.19;99388.56;5026219;28;20053;-72
2022/06/13 02:53:53;;;;;;;0.50;0.40;;;;;;;26.43;45.20;99393.38;5024474;28;20041;-72
2022/06/13 03:00:02;;;;;;;0.50;0.43;;;;;;;26.44;45.36;99395.00;4976948;28;20044;-72
2022/06/13 03:02:39;;;;;;;0.45;0.40;;;;;;;26.37;45.36;99395.81;4973012;28;20113;-72
2022/06/13 03:05:11;;;;;;;0.50;0.40;;;;;;;26.37;45.28;99400.63;4980424;28;20043;-72
2022/06/13 03:07:48;;;;;;;0.75;0.50;;;;;;;26.38;45.51;99408.63;4986096;28;20038;-72
2022/06/13 03:10:20;;;;;;;0.75;0.50;;;;;;;26.38;45.15;99413.44;4986292;28;20062;-72
2022/06/13 03:13:01;;;;;;;;;;;;;;;26.40;45.40;99405.44;4986225;28;20046;-72
2022/06/13 03:15:35;;;;;;;1.35;0.60;;;;;;;26.38;45.08;99405.03;4980684;28;20333;-72
2022/06/13 03:18:07;;;;;;;0.70;0.50;;;;;;;26.37;45.41;99406.25;4981433;28;20047;-72
2022/06/13 03:20:53;;;;;;;0.50;0.43;;;;;;;26.35;44.98;99407.41;4984817;28;20108;-72
2022/06/13 03:23:44;;;;;;;0.65;0.45;;;;;;;26.37;44.95;99406.25;4983235;28;20042;-72
2022/06/13 03:26:16;;;;;;;0.70;0.57;;;;;;;26.35;45.20;99401.03;4985833;28;20042;-72
2022/06/13 03:28:56;;;;;;;0.68;0.57;;;;;;;26.34;45.27;99397.41;4967521;28;20065;-72
2022/06/13 03:31:33;;;;;;;0.90;0.60;;;;;;;26.32;44.95;99399.84;4985814;28;20047;-72
2022/06/13 03:34:07;;;;;;;0.60;0.50;;;;;;;26.34;45.34;99408.63;5011127;28;20055;-72
2022/06/13 03:36:40;;;;;;;0.60;0.50;;;;;;;26.34;45.33;99411.44;5028237;28;20124;-71
2022/06/13 03:39:19;;;;;;;0.52;0.40;;;;;;;26.33;45.19;99409.84;5029570;28;20041;-71
2022/06/13 03:41:57;;;;;;;0.40;0.40;;;;;;;26.33;45.22;99407.03;5031175;28;20045;-71
2022/06/13 03:44:33;;;;;;;0.47;0.35;;;;;;;26.32;45.06;99402.66;5031161;28;20452;-71
2022/06/13 03:47:07;;;;;;;0.40;0.40;;;;;;;26.33;45.23;99407.03;5031499;28;20132;-71
2022/06/13 03:49:49;;;;;;;0.55;0.50;;;;;;;26.32;44.83;99397.03;5031284;28;20447;-71
2022/06/13 03:52:17;;;;;;;0.68;0.50;;;;;;;26.35;45.18;99406.63;5030682;28;20037;-71
2022/06/13 03:54:54;;;;;;;0.82;0.60;;;;;;;26.32;45.12;99401.84;5031116;28;20042;-71
2022/06/13 03:57:26;;;;;;;0.80;0.60;;;;;;;26.32;45.21;99411.06;5031095;28;20053;-71
2022/06/13 04:00:01;;;;;;;0.82;0.60;;;;;;;26.32;44.96;99416.66;5031169;28;20053;-71
2022/06/13 04:02:29;;;;;;;0.60;0.60;;;;;;;26.31;45.01;99420.69;5030863;28;20061;-71
2022/06/13 04:04:55;;;;;;;0.65;0.60;;;;;;;26.31;44.92;99419.91;5031001;28;20412;-71
2022/06/13 04:07:24;;;;;;;0.85;0.57;;;;;;;26.29;45.42;99419.50;5031090;28;20087;-71
2022/06/13 04:10:15;;;;;;;0.50;0.40;;;;;;;26.30;45.15;99418.31;5031766;28;20037;-71
2022/06/13 04:12:59;;;;;;;0.60;0.50;;;;;;;26.30;45.32;99437.94;5001931;28;20110;-71
2022/06/13 04:15:55;;;;;;;0.50;0.40;;;;;;;26.29;45.24;99425.94;5031571;28;20128;-71
2022/06/13 04:18:30;;;;;;;0.52;0.50;;;;;;;26.29;45.16;99439.13;5034859;28;20053;-71
2022/06/13 04:21:24;;;;;;;0.65;0.50;;;;;;;26.30;45.37;99423.91;5030816;28;20049;-71
2022/06/13 04:24:02;;;;;;;0.65;0.40;;;;;;;26.30;45.03;99427.50;5030800;28;20403;-71
2022/06/13 04:26:44;;;;;;;0.40;0.40;;;;;;;26.31;45.36;99419.91;5030763;28;20067;-71
2022/06/13 04:29:20;;;;;;;0.47;0.43;;;;;;;26.31;45.40;99419.91;5030568;28;20053;-71
2022/06/13 04:31:47;;;;;;;0.88;0.60;;;;;;;26.31;45.26;99428.31;5030628;28;20049;-71
2022/06/13 04:34:19;;;;;;;0.50;0.50;;;;;;;26.30;45.49;99412.69;5030442;28;20111;-72
2022/06/13 04:36:46;;;;;;;0.85;0.60;;;;;;;26.29;45.25;99419.50;5030590;28;20076;-71
2022/06/13 04:39:17;;;;;;;0.82;0.60;;;;;;;26.28;45.41;99426.31;5030418;28;20061;-71
2022/06/13 04:41:46;;;;;;;0.68;0.50;;;;;;;26.29;45.34;99431.53;5030426;28;20131;-71
2022/06/13 04:44:24;;;;;;;0.30;0.30;;;;;;;26.30;45.34;99435.94;5030104;28;20049;-71
2022/06/13 04:46:51;;;;;;;0.55;0.50;;;;;;;26.31;45.25;99436.72;5030538;28;20117;-71
2022/06/13 04:49:24;;;;;;;0.57;0.50;;;;;;;26.31;45.29;99437.50;5030258;28;20549;-71
2022/06/13 04:51:52;;;;;;;0.40;0.40;;;;;;;26.30;45.49;99435.94;5014043;28;20038;-71
2022/06/13 04:54:39;;;;;;;0.98;0.40;;;;;;;26.31;45.33;99434.72;5029680;28;20092;-71
2022/06/13 04:57:05;;;;;;;0.45;0.43;;;;;;;26.33;45.53;99443.50;5029819;28;20060;-71
2022/06/13 04:59:31;;;;;;;0.63;0.32;;;;;;;26.33;45.44;99434.28;5029632;28;20132;-71
2022/06/13 05:01:57;;;;;;;0.75;0.50;;;;;;;26.34;45.49;99428.25;5028129;28;20045;-71
2022/06/13 05:04:26;;;;;;;0.90;0.50;;;;;;;26.38;45.36;99430.25;5029737;28;20053;-71
2022/06/13 05:07:06;;;;;;;0.93;0.60;;;;;;;26.39;45.14;99432.69;5028598;28;20041;-71
2022/06/13 05:09:35;;;;;;;1.00;0.60;;;;;;;26.40;45.55;99441.88;5024704;28;20659;-71
2022/06/13 05:12:09;;;;;;;0.63;0.50;;;;;;;26.44;45.16;99448.28;5029445;28;20569;-71
2022/06/13 05:14:44;;;;;;;0.60;0.50;;;;;;;26.42;45.50;99445.88;5029589;28;20050;-71
2022/06/13 05:17:19;;;;;;;0.90;0.50;;;;;;;26.39;45.30;99443.91;5029283;28;20131;-71
2022/06/13 05:19:54;;;;;;;2.75;0.68;;;;;;;26.38;45.85;99442.28;5029621;28;20429;-71
2022/06/13 05:22:44;;;;;;;0.73;0.57;;;;;;;26.35;45.70;99452.28;5029752;28;20481;-71
2022/06/13 05:25:48;;;;;;;0.70;0.60;;;;;;;26.38;45.96;99458.31;5028544;28;20501;-71
2022/06/13 05:28:18;;;;;;;0.82;0.60;;;;;;;26.35;46.00;99460.72;5029741;28;20048;-71
2022/06/13 05:30:46;;;;;;;1.95;0.65;;;;;;;26.37;45.86;99463.13;5029585;28;20103;-71
2022/06/13 05:33:14;;;;;;;0.77;0.60;;;;;;;26.39;45.91;99471.13;5028902;28;20140;-71
2022/06/13 05:35:43;;;;;;;0.75;0.55;;;;;;;26.37;46.10;99471.53;5029485;28;20476;-71
2022/06/13 05:38:16;;;;;;;1.38;0.60;;;;;;;26.35;45.96;99469.13;5028616;28;20100;-71
2022/06/13 05:40:41;;;;;;;;;;;;;;;26.40;46.22;99470.72;5030094;28;20586;-71
2022/06/13 05:43:08;;;;;;;0.73;0.60;;;;;;;26.41;46.28;99468.72;5028968;28;20020;-71
2022/06/13 05:45:34;;;;;;;0.95;0.70;;;;;;;26.39;46.18;99471.13;5029553;28;20065;-72
2022/06/13 05:47:59;;;;;;;1.33;0.60;;;;;;;26.40;46.49;99464.31;5029300;28;20413;-71
2022/06/13 05:50:29;;;;;;;1.52;0.60;;;;;;;26.44;46.45;99473.53;5024889;28;20073;-76
2022/06/13 05:52:55;;;;;;;13.98;1.65;;;;;;;26.39;46.68;99477.56;5018669;28;20579;-71
2022/06/13 05:55:21;;;;;;;29.23;2.53;;;;;;;26.37;46.87;99481.97;5029050;28;20053;-72
2022/06/13 05:57:47;;;;;;;17.60;1.20;;;;;;;26.35;47.03;99471.94;5028110;28;20466;-72
2022/06/13 06:00:19;;;;;;;13.63;1.20;;;;;;;26.37;46.50;99477.16;5029181;28;20128;-71
2022/06/13 06:02:45;;;;;;;9.40;1.55;;;;;;;26.56;46.16;99481.44;5028803;28;20045;-71
2022/06/13 06:05:10;;;;;;;13.18;1.10;;;;;;;26.69;46.08;99484.53;5029227;28;20053;-71
2022/06/13 06:07:37;;;;;;;11.32;1.30;;;;;;;26.73;45.58;99482.50;5029037;28;20053;-71
2022/06/13 06:10:03;;;;;;;3.83;0.90;;;;;;;26.79;45.59;99490.06;5029309;28;20482;-72
2022/06/13 06:12:29;;;;;;;9.60;1.38;;;;;;;26.80;45.30;99494.47;5028682;28;20045;-72
2022/06/13 06:14:54;;;;;;;6.00;1.00;;;;;;;26.78;45.63;99505.28;5029083;28;20053;-72
2022/06/13 06:17:19;;;;;;;7.93;1.30;;;;;;;26.78;45.35;99487.66;5027354;28;20046;-72
2022/06/13 06:19:45;;;;;;;5.43;1.42;;;;;;;26.76;45.64;99490.88;5028720;28;20049;-72
2022/06/13 06:22:10;;;;;;;4.85;0.93;;;;;;;26.79;45.59;99495.69;5028798;28;20050;-72
2022/06/13 06:24:36;;;;;;;6.20;1.00;;;;;;;26.82;45.41;99497.66;5028712;28;20196;-72
2022/06/13 06:27:02;;;;;;;7.57;0.95;;;;;;;26.86;45.15;99495.63;5028888;28;20132;-72
2022/06/13 06:29:27;;;;;;;4.05;0.80;;;;;;;26.89;45.55;99496.78;5027633;28;20046;-72
2022/06/13 06:31:54;;;;;;;7.03;0.88;;;;;;;26.91;45.23;99490.75;5028543;28;20045;-72
2022/06/13 06:34:20;;;;;;;5.45;0.95;;;;;;;26.89;45.47;99488.38;5023541;28;20495;-72
2022/06/13 06:36:45;;;;;;;2.95;0.70;;;;;;;26.88;45.43;99481.97;5028064;28;21623;-72
2022/06/13 06:39:11;;;;;;;4.93;1.20;;;;;;;26.88;45.33;99496.00;5018590;28;20046;-72
2022/06/13 06:41:36;;;;;;;3.55;1.45;;;;;;;26.86;44.92;99492.00;5012082;28;20045;-72
2022/06/13 06:44:02;;;;;;;4.30;1.65;;;;;;;26.85;45.45;99487.59;5017600;28;20392;-76
2022/06/13 06:46:27;;;;;;;18.48;4.32;;;;;;;26.84;45.66;99497.22;5011836;28;20073;-75
2022/06/13 06:48:53;;;;;;;12.68;3.60;;;;;;;26.79;45.03;99489.25;5018408;28;20037;-76
2022/06/13 06:51:18;;;;;;;4.60;1.83;;;;;;;26.74;44.82;99498.94;5014258;28;20034;-75
2022/06/13 07:02:02;;;;;;;4.68;1.80;;;;;;;26.75;46.31;99506.13;4970659;28;20045;-75
2022/06/13 07:04:27;;;;;;;5.50;1.42;;;;;;;26.80;46.28;99504.91;4980576;28;20425;-73
2022/06/13 07:06:53;;;;;;;6.57;1.80;;;;;;;26.86;46.23;99500.41;4981103;28;20561;-73
2022/06/13 07:09:18;;;;;;;6.05;1.80;;;;;;;26.86;46.02;99501.25;4980234;28;20042;-71
2022/06/13 07:11:56;;;;;;;3.55;1.40;;;;;;;26.91;45.98;99508.41;4979155;28;20465;-71
2022/06/13 07:14:27;;;;;;;3.35;1.40;;;;;;;26.92;46.63;99507.19;4977330;28;20054;-70
2022/06/13 07:16:54;;;;;;;3.25;1.52;;;;;;;26.92;46.77;99512.78;4981086;28;20435;-72
2022/06/13 07:19:19;;;;;;;3.40;1.65;;;;;;;26.97;47.07;99511.56;4971250;28;20051;-74
2022/06/13 07:21:45;;;;;;;3.75;1.88;;;;;;;26.99;47.25;99511.94;4977825;28;20038;-73
2022/06/13 07:24:12;;;;;;;6.88;2.33;;;;;;;27.02;47.07;99509.13;4989766;28;20563;-73
2022/06/13 07:26:38;;;;;;;5.78;2.20;;;;;;;27.06;47.27;99509.09;5019435;28;20046;-73
2022/06/13 07:29:04;;;;;;;3.15;1.50;;;;;;;27.10;46.93;99509.88;5021869;28;20122;-74
2022/06/13 07:31:41;;;;;;;4.78;1.65;;;;;;;27.11;46.48;99508.66;5016700;28;20115;-74
2022/06/13 07:34:12;;;;;;;4.95;1.70;;;;;;;27.15;46.54;99515.84;5018329;28;20541;-73
2022/06/13 07:36:37;;;;;;;5.15;1.40;;;;;;;27.13;46.07;99515.44;5012890;28;20045;-73
2022/06/13 07:39:03;;;;;;;2.67;1.20;;;;;;;27.09;46.35;99500.66;5022338;28;20044;-79
2022/06/13 07:41:29;;;;;;;2.30;1.15;;;;;;;27.12;46.56;99508.22;5018328;28;20052;-76
2022/06/13 07:43:56;;;;;;;6.05;1.35;;;;;;;27.14;46.21;99505.78;5007391;28;20050;-74
2022/06/13 07:46:30;;;;;;;3.72;1.55;;;;;;;27.14;46.46;99505.00;4991972;28;20053;-73
2022/06/13 07:48:57;;;;;;;3.88;1.20;;;;;;;27.17;46.34;99509.00;5013349;28;20620;-74
2022/06/13 07:51:24;;;;;;;2.53;1.23;;;;;;;27.18;45.91;99502.97;5010061;28;20045;-74
2022/06/13 07:53:50;;;;;;;2.70;1.00;;;;;;;27.18;46.05;99505.78;5009722;28;20128;-73
2022/06/13 07:56:19;;;;;;;2.65;1.08;;;;;;;27.21;45.96;99512.56;5016086;28;20045;-75
2022/06/13 07:58:47;;;;;;;3.95;1.05;;;;;;;27.21;46.01;99502.13;5006051;28;20183;-75
2022/06/13 08:01:13;;;;;;;2.70;1.10;;;;;;;27.23;45.85;99501.72;5011731;28;21132;-75
2022/06/13 08:03:39;;;;;;;1.65;0.90;;;;;;;27.26;45.66;99500.88;5010986;28;20049;-74
2022/06/13 08:06:06;;;;;;;1.83;0.93;;;;;;;27.27;45.67;99491.25;5011938;28;20050;-74
2022/06/13 08:08:35;;;;;;;1.73;0.80;;;;;;;27.25;45.39;99496.47;5016275;28;20132;-74
2022/06/13 08:11:03;;;;;;;1.85;0.80;;;;;;;27.28;45.63;99496.44;5011345;28;20037;-73
2022/06/13 08:13:29;;;;;;;2.00;0.95;;;;;;;27.27;45.51;99489.22;5008035;28;20053;-73
2022/06/13 08:15:56;;;;;;;1.55;0.75;;;;;;;27.28;45.50;99496.44;5011124;28;20046;-71
2022/06/13 08:18:22;;;;;;;1.98;0.95;;;;;;;27.32;45.22;99491.59;4982895;28;20049;-75
2022/06/13 08:20:48;;;;;;;1.40;0.70;;;;;;;27.35;44.96;99492.75;4988427;28;20076;-73
2022/06/13 08:23:15;;;;;;;1.20;0.70;;;;;;;27.32;45.21;99487.97;5004722;28;20041;-74
2022/06/13 08:25:41;;;;;;;2.13;0.70;;;;;;;27.34;44.97;99494.78;5003131;28;20092;-74
2022/06/13 08:28:09;;;;;;;1.95;0.90;;;;;;;27.34;44.73;99485.53;5000085;28;20715;-73
2022/06/13 08:30:45;;;;;;;1.48;0.80;;;;;;;27.37;44.82;99479.91;4999399;28;20053;-72
2022/06/13 08:33:11;;;;;;;1.23;0.60;;;;;;;27.38;44.52;99475.88;4988385;28;20042;-70
2022/06/13 08:35:37;;;;;;;4.65;1.05;;;;;;;27.32;43.88;99474.72;5000673;28;20138;-70
2022/06/13 08:38:03;;;;;;;4.35;1.15;;;;;;;27.31;43.46;99475.97;5007103;28;20295;-70
2022/06/13 08:40:40;;;;;;;3.53;1.35;;;;;;;27.30;43.35;99477.19;5004328;28;20077;-69
2022/06/13 08:43:26;;;;;;;3.47;1.13;;;;;;;27.26;43.28;99481.22;4994983;28;20076;-69
2022/06/13 08:46:16;;;;;;;3.53;1.38;;;;;;;27.26;43.20;99484.03;5009254;28;20053;-69
2022/06/13 08:48:44;;;;;;;4.10;1.40;;;;;;;27.23;43.06;99487.69;5004221;28;20049;-69
2022/06/13 08:51:46;;;;;;;4.25;1.30;;;;;;;27.24;42.95;99478.84;5011639;28;20045;-70
2022/06/13 08:54:19;;;;;;;2.80;1.30;;;;;;;27.25;42.59;99474.81;5005247;28;20137;-69
2022/06/13 08:56:46;;;;;;;3.05;1.30;;;;;;;27.28;42.57;99475.97;5001776;28;20058;-70
2022/06/13 08:59:22;;;;;;;3.67;1.30;;;;;;;27.28;42.61;99473.16;5009550;28;20053;-70
2022/06/13 09:02:05;;;;;;;2.88;1.27;;;;;;;27.29;42.78;99472.78;5015644;28;20071;-68
2022/06/13 09:04:39;;;;;;;4.50;1.48;;;;;;;27.29;42.67;99466.34;5006428;28;20038;-68
2022/06/13 09:07:15;;;;;;;4.35;1.25;;;;;;;27.29;42.68;99452.28;5009509;28;20054;-69
2022/06/13 09:09:49;;;;;;;2.10;1.00;;;;;;;27.31;42.93;99452.69;5017891;28;20060;-69
2022/06/13 09:12:22;;;;;;;2.00;1.00;;;;;;;27.31;42.83;99453.47;5015736;28;20050;-70
2022/06/13 09:15:01;;;;;;;4.55;1.10;;;;;;;27.30;43.20;99456.72;5016405;28;20068;-68
2022/06/13 09:17:39;;;;;;;4.20;1.27;;;;;;;27.34;42.98;99451.84;5013731;28;20049;-68
2022/06/13 09:20:22;;;;;;;3.03;1.25;;;;;;;27.30;43.48;99456.72;5008694;28;20057;-70
2022/06/13 09:23:00;;;;;;;1.42;1.00;;;;;;;27.30;43.50;99454.72;5005212;28;20526;-69
2022/06/13 09:25:49;;;;;;;1.58;0.93;;;;;;;27.26;43.62;99450.34;4991023;28;20048;-69
2022/06/13 09:28:28;;;;;;;2.80;0.95;;;;;;;27.27;43.50;99449.91;4987519;28;20041;-69
2022/06/13 09:31:03;;;;;;;2.28;1.00;;;;;;;27.33;43.38;99447.44;5009075;28;20125;-70
2022/06/13 09:33:31;;;;;;;2.30;0.90;;;;;;;27.33;43.52;99448.22;5001873;28;20204;-68
2022/06/13 09:36:10;;;;;;;2.13;1.08;;;;;;;27.34;43.54;99447.03;5009186;28;20033;-70
2022/06/13 09:38:44;;;;;;;2.85;1.05;;;;;;;27.36;43.48;99439.00;5009787;28;20053;-70
2022/06/13 09:41:21;;;;;;;2.75;1.40;;;;;;;27.43;43.93;99443.69;5012404;28;20060;-68
2022/06/13 09:44:31;;;;;;;2.90;1.50;;;;;;;27.44;43.86;99439.69;4984628;28;20072;-69
2022/06/13 09:47:09;;;;;;;3.75;1.63;;;;;;;27.49;44.18;99438.41;4990247;28;21044;-70
2022/06/13 09:49:41;;;;;;;2.70;1.38;;;;;;;27.51;44.04;99430.38;4985855;28;20054;-70
2022/06/13 09:52:06;;;;;;;2.83;1.35;;;;;;;27.51;44.23;99430.38;5004144;28;21043;-70
2022/06/13 09:54:36;;;;;;;2.75;1.13;;;;;;;27.53;44.37;99425.13;5002094;28;20053;-70
2022/06/13 09:57:05;;;;;;;3.50;1.45;;;;;;;27.55;44.30;99426.31;4982229;28;20390;-73
2022/06/13 10:00:03;;;;;;;9.27;1.50;;;;;;;27.54;44.49;99405.03;5007424;28;20469;-68
2022/06/13 10:02:39;;;;;;;3.55;1.45;;;;;;;27.58;44.69;99413.44;4932235;28;20598;-70
2022/06/13 10:05:23;;;;;;;4.88;1.65;;;;;;;27.58;44.90;99413.44;4929761;28;21038;-69
2022/06/13 10:08:07;;;;;;;3.00;1.38;;;;;;;27.55;45.26;99409.44;4939455;28;20043;-70
2022/06/13 10:11:01;;;;;;;4.35;1.73;;;;;;;27.55;45.55;99401.00;4920621;28;20047;-70
2022/06/13 10:13:35;;;;;;;2.83;1.40;;;;;;;27.61;46.02;99399.31;4926807;28;20524;-70
2022/06/13 10:16:28;;;;;;;3.63;1.70;;;;;;;27.59;45.68;99393.34;4904248;29;20043;-70
2022/06/13 10:19:03;;;;;;;4.90;1.75;;;;;;;27.61;45.97;99395.72;4918545;29;20091;-70
2022/06/13 10:21:47;;;;;;;3.00;1.67;;;;;;;27.59;45.83;99390.53;4930690;28;20556;-70
2022/06/13 10:24:22;;;;;;;2.47;1.60;;;;;;;27.56;45.76;99384.94;4930538;29;20043;-70
2022/06/13 10:27:11;;;;;;;3.75;1.70;;;;;;;27.53;46.02;99377.38;4928282;28;20681;-70
2022/06/13 10:30:00;;;;;;;4.55;1.75;;;;;;;27.51;46.15;99393.88;4937648;28;20135;-69
2022/06/13 10:32:34;;;;;;;5.07;1.50;;;;;;;27.48;45.84;99381.44;4922108;28;20055;-69
2022/06/13 10:35:18;;;;;;;3.20;1.50;;;;;;;27.48;46.08;99395.50;4933576;28;20321;-69
2022/06/13 10:37:50;;;;;;;3.35;1.50;;;;;;;27.42;46.15;99400.78;4932287;28;20078;-69
2022/06/13 10:40:16;;;;;;;2.72;1.40;;;;;;;27.41;46.41;99404.78;5020909;28;20447;-70
2022/06/13 10:42:42;;;;;;;4.03;1.40;;;;;;;27.45;46.21;99378.69;5025661;28;20045;-69
2022/06/13 10:45:13;;;;;;;3.92;1.30;;;;;;;27.45;46.49;99398.34;5017897;28;20087;-70
2022/06/13 10:47:46;;;;;;;1.90;1.20;;;;;;;27.42;46.45;99391.53;5023493;28;20128;-69
2022/06/13 10:50:34;;;;;;;2.42;1.00;;;;;;;27.43;46.46;99398.75;5019856;28;20053;-69
2022/06/13 10:53:06;;;;;;;2.67;1.38;;;;;;;27.45;46.23;99387.91;5015189;28;20501;-69
2022/06/13 10:55:37;;;;;;;2.00;1.15;;;;;;;27.43;46.30;99377.09;5016661;28;20042;-69
2022/06/13 10:58:09;;;;;;;2.20;1.30;;;;;;;27.43;46.40;99379.91;4990443;28;20141;-68
2022/06/13 11:00:34;;;;;;;1.73;1.00;;;;;;;27.42;46.61;99372.69;5009915;28;20057;-69
2022/06/13 11:03:15;;;;;;;2.15;1.15;;;;;;;27.38;46.78;99382.38;5020630;28;20080;-69
2022/06/13 11:05:56;;;;;;;1.70;1.00;;;;;;;27.36;47.00;99376.38;5021257;28;20038;-70
2022/06/13 11:08:23;;;;;;;1.33;1.00;;;;;;;27.39;47.02;99387.56;4987517;28;20590;-70
2022/06/13 11:10:55;;;;;;;1.75;1.10;;;;;;;27.41;47.21;99379.50;4988414;28;20050;-70
2022/06/13 11:13:36;;;;;;;2.15;1.10;;;;;;;27.40;47.36;99377.13;5017967;28;20092;-70
2022/06/13 11:22:37;;;;;;;1.48;0.98;;;;;;;27.47;46.81;99370.63;5018547;28;20078;-75
2022/06/13 11:25:11;;;;;;;2.47;0.90;;;;;;;27.45;46.92;99354.19;5022906;28;20044;-75
2022/06/13 11:27:40;;;;;;;1.77;1.02;;;;;;;27.44;46.96;99355.44;5008955;28;20419;-74
2022/06/13 11:30:28;;;;;;;1.20;0.90;;;;;;;27.47;47.14;99363.00;4982995;28;20096;-74
2022/06/13 11:33:32;;;;;;;1.25;0.88;;;;;;;27.51;47.08;99365.78;4994298;28;20054;-69
2022/06/13 11:36:18;;;;;;;2.78;1.27;;;;;;;27.53;46.82;99355.69;5015495;28;20053;-68
2022/06/13 11:39:00;;;;;;;1.40;1.00;;;;;;;27.55;46.84;99358.88;5012888;28;20048;-68
2022/06/13 11:41:42;;;;;;;2.00;1.00;;;;;;;27.58;46.87;99355.22;5015031;28;20046;-69
2022/06/13 11:44:12;;;;;;;2.00;1.20;;;;;;;27.58;46.84;99355.22;5006028;28;20065;-69
2022/06/13 11:46:55;;;;;;;1.80;1.00;;;;;;;27.60;46.79;99355.59;5006457;28;20042;-69
2022/06/13 11:49:39;;;;;;;1.48;1.00;;;;;;;27.61;46.77;99364.81;5013996;28;20045;-69
2022/06/13 11:53:35;;;;;;;1.92;1.10;;;;;;;27.62;46.85;99349.53;4977876;28;20105;-68
2022/06/13 11:55:00;;;;;;;1.67;1.05;;;;;;;27.63;46.70;99346.31;5024817;28;20673;-70
2022/06/13 11:57:31;;;;;;;1.27;0.95;;;;;;;27.62;46.76;99343.91;5016863;28;20057;-70
2022/06/13 12:00:12;;;;;;;1.88;1.20;;;;;;;27.64;46.75;99352.72;5014637;28;20160;-70
2022/06/13 12:02:49;;;;;;;1.58;0.80;;;;;;;27.65;46.60;99323.41;4989025;28;20077;-69
2022/06/13 12:05:15;;;;;;;1.52;1.00;;;;;;;27.67;47.25;99324.63;5016121;28;20041;-69
2022/06/13 12:07:50;;;;;;;1.48;1.00;;;;;;;27.64;47.11;99321.81;4993327;28;20415;-73
2022/06/13 12:10:23;;;;;;;2.17;1.08;;;;;;;27.63;47.48;99306.16;4997053;28;20049;-71
2022/06/13 12:12:48;;;;;;;1.77;0.90;;;;;;;27.63;48.08;99323.81;5017477;28;20383;-71
2022/06/13 12:15:15;;;;;;;1.23;0.90;;;;;;;27.64;48.04;99316.19;5016490;28;20066;-76
2022/06/13 12:17:52;;;;;;;1.48;0.85;;;;;;;27.66;48.34;99311.75;4988690;28;20406;-75
2022/06/13 12:20:32;;;;;;;1.80;1.00;;;;;;;27.66;48.54;99313.78;5002152;28;20045;-73
2022/06/13 12:23:08;;;;;;;1.50;0.80;;;;;;;27.67;48.60;99306.94;5020074;28;20497;-75
2022/06/13 12:25:40;;;;;;;1.45;0.90;;;;;;;27.70;48.57;99311.72;5005913;28;20076;-71